createdAt,value
2019-02-06T00:01:39.653Z,1.10
2019-02-06T00:04:10.196Z,1.20
2019-02-06T00:06:40.690Z,1.10
2019-02-06T00:09:15.220Z,1.10
2019-02-06T00:11:45.795Z,1.20
2019-02-06T00:14:16.365Z,1.20
2019-02-06T00:16:46.881Z,1.10
2019-02-06T00:19:17.482Z,1.20
2019-02-06T00:21:47.903Z,0.90
2019-02-06T00:24:18.461Z,1.10
2019-02-06T00:26:48.988Z,1.00
2019-02-06T00:29:19.472Z,1.10
2019-02-06T00:31:49.857Z,1.10
2019-02-06T00:34:20.535Z,1.20
2019-02-06T00:36:50.960Z,1.10
2019-02-06T00:39:21.447Z,1.40
2019-02-06T00:41:51.873Z,1.00
2019-02-06T00:44:24.803Z,1.40
2019-02-06T00:46:55.539Z,1.30
2019-02-06T00:49:25.984Z,1.10
2019-02-06T00:51:56.385Z,1.20
2019-02-06T00:54:26.778Z,1.10
2019-02-06T00:56:57.315Z,1.20
2019-02-06T00:59:27.741Z,1.10
2019-02-06T01:01:58.214Z,1.20
2019-02-06T01:04:28.695Z,1.20
2019-02-06T01:06:59.141Z,1.30
2019-02-06T01:09:29.721Z,1.20
2019-02-06T01:12:00.183Z,1.10
2019-02-06T01:14:31.223Z,1.20
2019-02-06T01:17:01.635Z,0.90
2019-02-06T01:19:32.059Z,1.30
2019-02-06T01:22:02.458Z,1.20
2019-02-06T01:24:32.890Z,1.40
2019-02-06T01:27:03.430Z,1.30
2019-02-06T01:29:34.150Z,1.10
2019-02-06T01:32:04.993Z,1.20
2019-02-06T01:34:35.434Z,1.10
2019-02-06T01:37:05.950Z,1.10
2019-02-06T01:39:36.370Z,1.30
2019-02-06T01:42:06.777Z,1.30
2019-02-06T01:44:37.242Z,1.30
2019-02-06T01:47:07.709Z,1.10
2019-02-06T01:49:38.133Z,1.40
2019-02-06T01:52:08.650Z,1.00
2019-02-06T01:54:39.101Z,1.40
2019-02-06T01:57:09.827Z,1.30
2019-02-06T01:59:40.295Z,1.20
2019-02-06T02:02:10.913Z,1.30
2019-02-06T02:04:41.350Z,1.20
2019-02-06T02:07:11.957Z,1.50
2019-02-06T02:09:42.472Z,1.30
2019-02-06T02:12:13.889Z,1.40
2019-02-06T02:14:44.397Z,1.30
2019-02-06T02:17:14.991Z,1.20
2019-02-06T02:19:45.390Z,1.30
2019-02-06T02:22:15.834Z,1.40
2019-02-06T02:24:46.400Z,1.40
2019-02-06T02:27:16.806Z,1.30
2019-02-06T02:29:47.253Z,1.60
2019-02-06T02:32:17.672Z,1.40
2019-02-06T02:34:48.110Z,1.40
2019-02-06T02:37:18.542Z,1.60
2019-02-06T02:39:48.966Z,1.70
2019-02-06T02:42:19.386Z,1.60
2019-02-06T02:44:49.964Z,1.30
2019-02-06T02:47:20.498Z,1.30
2019-02-06T02:49:50.914Z,1.30
2019-02-06T02:52:21.987Z,1.30
2019-02-06T02:54:52.400Z,1.50
2019-02-06T02:57:22.939Z,1.50
2019-02-06T02:59:53.362Z,1.40
2019-02-06T03:02:51.994Z,1.60
2019-02-06T03:05:25.802Z,1.50
2019-02-06T03:07:56.315Z,1.60
2019-02-06T03:10:27.123Z,1.50
2019-02-06T03:12:57.546Z,1.70
2019-02-06T03:15:28.013Z,1.60
2019-02-06T03:17:58.434Z,1.70
2019-02-06T03:20:28.890Z,1.50
2019-02-06T03:22:59.317Z,1.80
2019-02-06T03:25:29.793Z,1.80
2019-02-06T03:28:00.263Z,1.50
2019-02-06T03:30:30.847Z,1.80
2019-02-06T03:33:01.241Z,1.50
2019-02-06T03:35:31.771Z,1.80
2019-02-06T03:38:02.184Z,1.70
2019-02-06T03:40:32.629Z,1.70
2019-02-06T03:43:03.256Z,1.50
2019-02-06T03:45:33.880Z,1.60
2019-02-06T03:48:04.482Z,1.70
2019-02-06T03:50:34.927Z,1.80
2019-02-06T03:53:05.347Z,1.60
2019-02-06T03:55:35.809Z,1.90
2019-02-06T03:58:06.430Z,1.50
2019-02-06T04:00:36.901Z,1.70
2019-02-06T04:03:07.435Z,1.70
2019-02-06T04:05:37.825Z,1.80
2019-02-06T04:08:08.278Z,1.90
2019-02-06T04:10:39.116Z,1.90
2019-02-06T04:13:09.563Z,1.60
2019-02-06T04:15:39.992Z,1.70
2019-02-06T04:18:10.394Z,1.80
2019-02-06T04:20:40.854Z,1.80
2019-02-06T04:23:11.358Z,1.90
2019-02-06T04:25:41.806Z,2.00
2019-02-06T04:28:12.235Z,1.80
2019-02-06T04:30:42.642Z,1.80
2019-02-06T04:33:13.086Z,1.70
2019-02-06T04:35:43.517Z,2.00
2019-02-06T04:38:14.461Z,1.90
2019-02-06T04:40:44.886Z,1.80
2019-02-06T04:43:15.314Z,2.00
2019-02-06T04:45:45.942Z,1.90
2019-02-06T04:48:17.417Z,2.00
2019-02-06T04:50:47.903Z,2.00
2019-02-06T04:53:18.332Z,1.90
2019-02-06T04:55:48.819Z,2.10
2019-02-06T04:58:19.258Z,1.90
2019-02-06T05:00:49.676Z,1.60
2019-02-06T05:03:20.117Z,2.00
2019-02-06T05:05:51.258Z,1.90
2019-02-06T05:08:21.690Z,1.80
2019-02-06T05:10:52.100Z,1.80
2019-02-06T05:13:22.529Z,1.80
2019-02-06T05:15:53.021Z,2.00
2019-02-06T05:18:23.553Z,2.00
2019-02-06T05:20:54.169Z,2.00
2019-02-06T05:23:24.702Z,2.20
2019-02-06T05:25:55.177Z,1.90
2019-02-06T05:28:25.596Z,2.00
2019-02-06T05:30:56.158Z,2.10
2019-02-06T05:33:26.601Z,2.10
2019-02-06T05:35:57.025Z,2.20
2019-02-06T05:38:27.491Z,2.30
2019-02-06T05:40:57.914Z,2.20
2019-02-06T05:43:28.759Z,2.00
2019-02-06T05:45:59.286Z,2.10
2019-02-06T05:48:30.202Z,2.10
2019-02-06T05:51:19.521Z,2.20
2019-02-06T05:53:49.976Z,2.00
2019-02-06T05:56:20.418Z,2.00
2019-02-06T05:58:50.872Z,2.00
2019-02-06T06:01:24.845Z,2.30
2019-02-06T06:03:55.447Z,2.00
2019-02-06T06:06:25.963Z,2.10
2019-02-06T06:08:56.399Z,2.30
2019-02-06T06:11:26.967Z,2.30
2019-02-06T06:13:57.675Z,2.20
2019-02-06T06:16:28.155Z,2.20
2019-02-06T06:18:58.663Z,2.30
2019-02-06T06:21:29.094Z,2.20
2019-02-06T06:23:59.542Z,2.40
2019-02-06T06:26:30.085Z,2.40
2019-02-06T06:29:00.654Z,2.50
2019-02-06T06:31:31.145Z,2.20
2019-02-06T06:34:01.603Z,2.10
2019-02-06T06:36:32.112Z,2.30
2019-02-06T06:39:02.524Z,2.20
2019-02-06T06:41:33.051Z,2.30
2019-02-06T06:44:03.484Z,2.50
2019-02-06T06:46:33.915Z,2.60
2019-02-06T06:49:04.361Z,2.30
2019-02-06T06:51:34.826Z,2.30
2019-02-06T06:54:05.650Z,2.60
2019-02-06T06:56:36.474Z,2.40
2019-02-06T06:59:07.054Z,2.30
2019-02-06T07:01:37.651Z,2.60
2019-02-06T07:04:09.718Z,2.50
2019-02-06T07:06:40.158Z,2.50
2019-02-06T07:09:10.657Z,2.70
2019-02-06T07:11:41.635Z,2.70
2019-02-06T07:14:12.291Z,2.60
2019-02-06T07:16:42.734Z,2.90
2019-02-06T07:19:13.176Z,2.90
2019-02-06T07:21:43.701Z,3.10
2019-02-06T07:24:14.454Z,3.00
2019-02-06T07:26:44.974Z,3.10
2019-02-06T07:29:15.402Z,3.10
2019-02-06T07:31:45.811Z,3.00
2019-02-06T07:34:16.342Z,3.10
2019-02-06T07:36:46.793Z,3.30
2019-02-06T07:39:17.366Z,3.30
2019-02-06T07:41:47.825Z,3.60
2019-02-06T07:44:18.237Z,3.70
2019-02-06T07:46:48.778Z,3.60
2019-02-06T07:49:19.226Z,3.70
2019-02-06T08:02:54.574Z,3.40
2019-02-06T08:05:25.261Z,3.70
2019-02-06T08:07:56.150Z,4.00
2019-02-06T08:10:29.200Z,4.30
2019-02-06T08:12:59.669Z,4.10
2019-02-06T08:15:30.346Z,3.80
2019-02-06T08:18:00.949Z,3.90
2019-02-06T08:20:32.745Z,3.90
2019-02-06T08:23:02.985Z,4.20
2019-02-06T08:25:33.268Z,4.10
2019-02-06T08:28:03.538Z,4.00
2019-02-06T08:30:39.059Z,4.00
2019-02-06T08:33:09.349Z,3.90
2019-02-06T08:35:39.725Z,3.60
2019-02-06T08:38:10.128Z,3.40
2019-02-06T08:40:40.441Z,3.80
2019-02-06T08:43:10.745Z,4.00
2019-02-06T08:45:41.029Z,4.30
2019-02-06T08:48:11.824Z,4.50
2019-02-06T08:50:42.084Z,4.60
2019-02-06T08:53:12.385Z,4.70
2019-02-06T08:55:42.931Z,5.20
2019-02-06T08:58:13.232Z,5.60
2019-02-06T09:00:43.594Z,5.70
2019-02-06T09:03:14.150Z,5.80
2019-02-06T09:05:44.530Z,5.90
2019-02-06T09:08:15.006Z,5.90
2019-02-06T09:10:45.313Z,5.70
2019-02-06T09:13:16.082Z,5.50
2019-02-06T09:15:46.379Z,5.40
2019-02-06T09:18:18.096Z,5.30
2019-02-06T09:20:48.397Z,5.20
2019-02-06T09:23:18.673Z,5.10
2019-02-06T09:25:48.981Z,5.00
2019-02-06T09:28:19.233Z,5.20
2019-02-06T09:30:49.970Z,5.40
2019-02-06T09:33:20.232Z,5.50
2019-02-06T09:35:50.514Z,5.50
2019-02-06T09:38:20.850Z,5.70
2019-02-06T09:40:51.131Z,5.70
2019-02-06T09:43:21.426Z,5.80
2019-02-06T09:45:51.876Z,5.90
2019-02-06T09:48:22.173Z,5.90
2019-02-06T09:50:52.438Z,5.60
2019-02-06T09:53:22.710Z,5.40
2019-02-06T09:55:53.407Z,5.30
2019-02-06T09:58:24.003Z,5.30
2019-02-06T10:00:54.289Z,5.30
2019-02-06T10:03:24.566Z,5.50
2019-02-06T10:05:54.999Z,5.10
2019-02-06T10:08:25.300Z,5.30
2019-02-06T10:10:55.556Z,5.50
2019-02-06T10:13:26.145Z,5.40
2019-02-06T10:15:56.402Z,5.30
2019-02-06T10:18:27.013Z,5.30
2019-02-06T10:20:57.669Z,5.30
2019-02-06T10:23:27.960Z,5.10
2019-02-06T10:25:58.229Z,5.10
2019-02-06T10:28:28.727Z,5.00
2019-02-06T10:30:58.980Z,5.10
2019-02-06T10:33:29.289Z,5.20
2019-02-06T10:35:59.556Z,5.20
2019-02-06T10:38:29.934Z,5.20
2019-02-06T10:41:04.456Z,5.00
2019-02-06T10:43:35.798Z,5.40
2019-02-06T10:46:05.784Z,5.30
2019-02-06T10:48:36.093Z,5.30
2019-02-06T10:51:06.477Z,5.30
2019-02-06T10:53:36.742Z,5.20
2019-02-06T10:56:07.062Z,5.20
2019-02-06T10:58:37.320Z,5.10
2019-02-06T11:01:08.030Z,5.20
2019-02-06T11:03:38.295Z,5.10
2019-02-06T11:06:08.789Z,5.00
2019-02-06T11:08:39.886Z,5.10
2019-02-06T11:11:10.233Z,5.20
2019-02-06T11:13:40.567Z,5.10
2019-02-06T11:16:10.966Z,5.30
2019-02-06T11:18:44.267Z,5.40
2019-02-06T11:21:13.238Z,5.50
2019-02-06T11:23:43.823Z,5.50
2019-02-06T11:26:14.209Z,5.20
2019-02-06T11:28:44.496Z,5.60
2019-02-06T11:31:15.381Z,5.60
2019-02-06T11:33:45.665Z,6.00
2019-02-06T11:36:23.930Z,6.00
2019-02-06T11:38:48.377Z,5.90
2019-02-06T11:41:18.691Z,5.50
2019-02-06T11:43:49.033Z,5.60
2019-02-06T11:46:19.330Z,5.50
2019-02-06T11:48:50.385Z,5.40
2019-02-06T11:51:24.362Z,5.60
2019-02-06T11:53:53.880Z,5.60
2019-02-06T11:56:24.142Z,5.40
2019-02-06T11:58:54.625Z,5.00
2019-02-06T12:01:37.992Z,5.10
2019-02-06T12:04:08.301Z,5.00
2019-02-06T12:06:38.814Z,5.20
2019-02-06T12:09:13.350Z,5.50
2019-02-06T12:11:43.672Z,5.50
2019-02-06T12:14:14.367Z,5.80
2019-02-06T12:16:44.650Z,5.90
2019-02-06T12:19:15.047Z,5.90
2019-02-06T12:21:45.414Z,5.60
2019-02-06T12:24:15.799Z,5.40
2019-02-06T12:26:46.057Z,5.10
2019-02-06T12:29:16.675Z,5.10
2019-02-06T12:31:46.946Z,5.00
2019-02-06T12:34:17.205Z,5.00
2019-02-06T12:36:47.457Z,4.70
2019-02-06T12:39:17.832Z,4.90
2019-02-06T12:41:48.126Z,4.90
2019-02-06T12:44:18.617Z,4.90
2019-02-06T12:46:48.996Z,4.80
2019-02-06T12:49:19.287Z,4.80
2019-02-06T12:51:52.265Z,4.90
2019-02-06T12:54:21.423Z,4.80
2019-02-06T12:56:51.703Z,5.00
2019-02-06T12:59:27.409Z,4.80
2019-02-06T13:02:06.521Z,4.60
2019-02-06T13:04:39.168Z,4.40
2019-02-06T13:07:11.045Z,4.50
2019-02-06T13:09:41.306Z,4.30
2019-02-06T13:12:11.809Z,4.50
2019-02-06T13:14:42.112Z,4.60
2019-02-06T13:17:12.604Z,4.50
2019-02-06T13:19:42.925Z,4.40
2019-02-06T13:22:13.277Z,4.20
2019-02-06T13:24:43.565Z,4.10
2019-02-06T13:27:13.861Z,4.30
2019-02-06T13:29:44.165Z,4.20
2019-02-06T13:32:14.441Z,4.20
2019-02-06T13:34:44.702Z,4.20
2019-02-06T13:37:14.968Z,4.30
2019-02-06T13:39:45.952Z,4.10
2019-02-06T13:42:16.225Z,4.10
2019-02-06T13:44:46.497Z,4.10
2019-02-06T13:47:16.903Z,4.00
2019-02-06T13:49:47.166Z,4.00
2019-02-06T13:52:17.513Z,3.80
2019-02-06T13:54:47.837Z,3.80
2019-02-06T13:57:18.124Z,3.90
2019-02-06T13:59:48.485Z,3.80
2019-02-06T14:02:18.955Z,3.70
2019-02-06T14:04:49.317Z,3.80
2019-02-06T14:07:20.007Z,3.80
2019-02-06T14:09:50.326Z,3.70
2019-02-06T14:12:20.642Z,3.80
2019-02-06T14:14:50.914Z,3.70
2019-02-06T14:17:21.218Z,4.00
2019-02-06T14:19:51.519Z,3.80
2019-02-06T14:22:21.855Z,4.20
2019-02-06T14:24:59.909Z,4.10
2019-02-06T14:27:57.213Z,3.80
2019-02-06T14:31:00.165Z,4.00
2019-02-06T14:34:17.077Z,4.00
2019-02-06T14:36:58.015Z,4.20
2019-02-06T14:40:15.676Z,3.80
2019-02-06T14:43:10.969Z,3.90
2019-02-06T14:46:20.504Z,3.90
2019-02-06T14:49:34.728Z,3.60
2019-02-06T14:52:36.025Z,3.50
2019-02-06T14:55:46.017Z,3.50
2019-02-06T14:58:49.973Z,3.40
2019-02-06T15:01:57.956Z,3.30
2019-02-06T15:05:17.465Z,3.70
2019-02-06T15:08:10.250Z,3.50
2019-02-06T15:10:48.549Z,3.50
2019-02-06T15:13:36.465Z,3.20
2019-02-06T15:16:46.661Z,3.20
2019-02-06T15:19:55.203Z,3.40
2019-02-06T15:23:02.368Z,3.50
2019-02-06T15:26:09.270Z,3.00
2019-02-06T15:29:17.594Z,3.30
2019-02-06T15:32:47.674Z,3.30
2019-02-06T15:36:01.223Z,3.30
2019-02-06T15:39:10.086Z,3.20
2019-02-06T15:42:11.425Z,3.10
2019-02-06T15:45:06.130Z,3.00
2019-02-06T15:48:14.894Z,3.20
2019-02-06T15:51:27.614Z,3.00
2019-02-06T15:54:39.736Z,3.00
2019-02-06T15:58:11.363Z,2.90
2019-02-06T16:01:17.577Z,3.10
2019-02-06T16:04:57.178Z,3.00
2019-02-06T16:08:03.078Z,2.90
2019-02-06T16:11:14.431Z,2.90
2019-02-06T16:14:40.786Z,2.90
2019-02-06T16:17:32.802Z,3.00
2019-02-06T16:20:43.150Z,2.90
2019-02-06T16:23:53.597Z,3.00
2019-02-06T16:27:35.560Z,2.90
2019-02-06T16:30:49.654Z,2.90
2019-02-06T16:33:41.465Z,3.00
2019-02-06T16:36:34.737Z,2.90
2019-02-06T16:39:32.102Z,2.70
2019-02-06T16:42:58.345Z,2.60
2019-02-06T16:45:59.961Z,2.60
2019-02-06T16:48:55.416Z,2.50
2019-02-06T16:51:33.358Z,2.60
2019-02-06T16:54:31.005Z,2.40
2019-02-06T16:57:23.390Z,2.40
2019-02-06T17:00:41.069Z,2.30
2019-02-06T17:03:53.009Z,2.20
2019-02-06T17:07:13.229Z,2.30
2019-02-06T17:09:54.267Z,2.50
2019-02-06T17:12:36.790Z,2.30
2019-02-06T17:15:44.546Z,2.40
2019-02-06T17:19:05.059Z,2.20
2019-02-06T17:22:30.133Z,2.10
2019-02-06T17:25:12.433Z,2.10
2019-02-06T17:28:23.569Z,2.30
2019-02-06T17:31:37.061Z,2.20
2019-02-06T17:34:36.050Z,2.30
2019-02-06T17:37:47.602Z,2.30
2019-02-06T17:41:11.085Z,2.30
2019-02-06T17:44:12.759Z,2.10
2019-02-06T17:47:00.903Z,2.10
2019-02-06T17:50:27.238Z,2.40
2019-02-06T17:53:07.274Z,2.20
2019-02-06T17:55:37.649Z,2.30
2019-02-06T17:58:10.675Z,2.20
2019-02-06T18:01:26.190Z,2.10
2019-02-06T18:04:00.830Z,2.50
2019-02-06T18:06:31.141Z,2.30
2019-02-06T18:09:02.818Z,2.60
2019-02-06T18:11:33.482Z,2.40
2019-02-06T18:14:03.989Z,2.60
2019-02-06T18:16:34.279Z,2.50
2019-02-06T18:19:04.676Z,2.50
2019-02-06T18:21:35.012Z,2.40
2019-02-06T18:24:06.190Z,2.50
2019-02-06T18:26:44.027Z,2.50
2019-02-06T18:29:14.446Z,2.60
2019-02-06T18:31:44.733Z,2.70
2019-02-06T18:34:15.113Z,2.70
2019-02-06T18:36:45.475Z,2.60
2019-02-06T18:39:16.882Z,2.60
2019-02-06T18:41:47.366Z,2.70
2019-02-06T18:44:17.737Z,2.80
2019-02-06T18:46:51.765Z,2.70
2019-02-06T18:49:22.049Z,2.70
2019-02-06T18:51:52.350Z,2.80
2019-02-06T18:54:22.672Z,2.80
2019-02-06T18:56:53.014Z,3.00
2019-02-06T18:59:23.429Z,2.60
2019-02-06T19:01:55.536Z,2.80
2019-02-06T19:04:25.823Z,2.70
2019-02-06T19:06:56.078Z,2.50
2019-02-06T19:09:28.923Z,2.70
2019-02-06T19:11:58.823Z,2.50
2019-02-06T19:14:29.092Z,2.50
2019-02-06T19:16:59.461Z,2.50
2019-02-06T19:19:29.790Z,2.50
2019-02-06T19:22:00.069Z,2.60
2019-02-06T19:24:30.369Z,2.40
2019-02-06T19:27:02.817Z,2.40
2019-02-06T19:29:33.214Z,2.50
2019-02-06T19:32:03.673Z,2.30
2019-02-06T19:34:34.009Z,2.40
2019-02-06T19:37:07.792Z,2.60
2019-02-06T19:39:38.104Z,2.50
2019-02-06T19:42:08.385Z,2.60
2019-02-06T19:44:38.773Z,2.70
2019-02-06T19:47:09.149Z,2.70
2019-02-06T19:49:39.515Z,2.40
2019-02-06T19:52:09.810Z,2.60
2019-02-06T19:54:40.191Z,2.50
2019-02-06T19:57:10.577Z,2.70
2019-02-06T19:59:41.187Z,2.50
2019-02-06T20:02:11.474Z,2.60
2019-02-06T20:04:41.741Z,2.70
2019-02-06T20:07:12.260Z,2.60
2019-02-06T20:09:42.699Z,2.50
2019-02-06T20:12:13.146Z,2.50
2019-02-06T20:14:43.745Z,2.30
2019-02-06T20:17:14.264Z,2.40
2019-02-06T20:19:44.543Z,2.50
2019-02-06T20:22:14.801Z,2.40
2019-02-06T20:24:45.066Z,2.40
2019-02-06T20:27:15.343Z,2.50
2019-02-06T20:29:45.670Z,2.30
2019-02-06T20:32:16.266Z,2.60
2019-02-06T20:34:46.653Z,2.30
2019-02-06T20:37:17.046Z,2.30
2019-02-06T20:39:47.437Z,2.40
2019-02-06T20:42:18.106Z,2.40
2019-02-06T20:44:48.409Z,2.50
2019-02-06T20:47:18.717Z,2.40
2019-02-06T20:49:49.018Z,2.70
2019-02-06T20:52:19.377Z,2.50
2019-02-06T20:54:49.650Z,2.60
2019-02-06T20:57:20.038Z,2.50
2019-02-06T20:59:50.454Z,2.50
2019-02-06T21:02:20.965Z,2.60
2019-02-06T21:04:51.340Z,2.50
2019-02-06T21:07:21.710Z,2.60
2019-02-06T21:09:52.059Z,2.50
2019-02-06T21:12:22.453Z,2.50
2019-02-06T21:14:52.913Z,2.50
2019-02-06T21:17:23.151Z,2.60
2019-02-06T21:19:53.458Z,2.50
2019-02-06T21:22:23.839Z,2.40
2019-02-06T21:24:54.254Z,2.60
2019-02-06T21:27:24.708Z,2.50
2019-02-06T21:29:55.310Z,2.30
2019-02-06T21:32:25.666Z,2.30
2019-02-06T21:34:55.968Z,2.10
2019-02-06T21:37:27.093Z,2.00
2019-02-06T21:39:57.527Z,1.80
2019-02-06T21:42:27.852Z,1.80
2019-02-06T21:44:58.362Z,1.80
2019-02-06T21:47:28.654Z,1.80
2019-02-06T21:49:58.913Z,1.80
2019-02-06T21:52:29.289Z,1.90
2019-02-06T21:54:59.549Z,1.80
2019-02-06T21:57:30.138Z,1.80
2019-02-06T22:00:00.449Z,1.90
2019-02-06T22:02:30.753Z,1.70
2019-02-06T22:05:03.557Z,2.00
2019-02-06T22:07:33.821Z,2.10
2019-02-06T22:10:05.509Z,1.90
2019-02-06T22:12:35.805Z,2.00
2019-02-06T22:15:09.179Z,2.00
2019-02-06T22:17:39.497Z,2.10
2019-02-06T22:20:10.670Z,2.00
2019-02-06T22:22:42.886Z,2.10
2019-02-06T22:25:13.037Z,1.90
2019-02-06T22:27:43.353Z,1.70
2019-02-06T22:30:16.746Z,1.90
2019-02-06T22:32:47.023Z,2.10
2019-02-06T22:35:17.399Z,1.90
2019-02-06T22:37:47.945Z,1.90
2019-02-06T22:40:20.194Z,1.90
2019-02-06T22:42:50.823Z,1.90
2019-02-06T22:45:22.865Z,2.00
2019-02-06T22:47:53.168Z,1.90
2019-02-06T22:50:26.447Z,2.10
2019-02-06T22:52:56.828Z,2.10
2019-02-06T22:55:27.319Z,2.20
2019-02-06T22:57:57.725Z,2.00
2019-02-06T23:00:56.126Z,2.00
2019-02-06T23:03:32.797Z,2.00
2019-02-06T23:06:03.166Z,2.00
2019-02-06T23:08:33.577Z,2.10
2019-02-06T23:11:04.226Z,1.90
2019-02-06T23:13:34.574Z,2.00
2019-02-06T23:16:06.548Z,2.00
2019-02-06T23:18:36.936Z,2.20
2019-02-06T23:21:07.370Z,2.10
2019-02-06T23:23:38.058Z,2.00
2019-02-06T23:26:08.661Z,2.10
2019-02-06T23:28:48.099Z,2.20
2019-02-06T23:31:18.578Z,2.20
2019-02-06T23:33:50.417Z,2.10
2019-02-06T23:36:20.925Z,2.00
2019-02-06T23:38:51.298Z,2.40
2019-02-06T23:41:21.749Z,2.20
2019-02-06T23:43:53.750Z,2.00
2019-02-06T23:46:24.376Z,2.10
2019-02-06T23:48:55.049Z,2.00
2019-02-06T23:51:25.354Z,2.10
2019-02-06T23:53:55.646Z,2.30
2019-02-06T23:56:26.012Z,2.00
2019-02-06T23:58:58.543Z,2.20
